sensor_id;sensor_type;location;lat;lon;timestamp;P1;durP1;ratioP1;P2;durP2;ratioP2
62475;SDS011;50739;45.670;11.936;2023-03-03T00:03:42;18.02;;;13.45;;
62475;SDS011;50739;45.670;11.936;2023-03-03T00:08:44;19.13;;;13.55;;
62475;SDS011;50739;45.670;11.936;2023-03-03T00:13:47;17.88;;;13.50;;
62475;SDS011;50739;45.670;11.936;2023-03-03T00:18:53;16.70;;;12.68;;
62475;SDS011;50739;45.670;11.936;2023-03-03T00:23:58;17.63;;;12.17;;
62475;SDS011;50739;45.670;11.936;2023-03-03T00:29:26;18.58;;;12.52;;
62475;SDS011;50739;45.670;11.936;2023-03-03T00:34:31;20.57;;;11.93;;
62475;SDS011;50739;45.670;11.936;2023-03-03T00:39:35;16.90;;;12.37;;
62475;SDS011;50739;45.670;11.936;2023-03-03T00:44:39;15.98;;;11.25;;
62475;SDS011;50739;45.670;11.936;2023-03-03T00:49:44;18.38;;;11.73;;
62475;SDS011;50739;45.670;11.936;2023-03-03T00:54:46;16.25;;;10.65;;
62475;SDS011;50739;45.670;11.936;2023-03-03T00:59:48;15.35;;;10.60;;
62475;SDS011;50739;45.670;11.936;2023-03-03T01:04:51;16.75;;;10.50;;
62475;SDS011;50739;45.670;11.936;2023-03-03T01:09:55;15.83;;;10.23;;
62475;SDS011;50739;45.670;11.936;2023-03-03T01:14:57;14.20;;;9.80;;
62475;SDS011;50739;45.670;11.936;2023-03-03T01:20:00;15.05;;;9.40;;
62475;SDS011;50739;45.670;11.936;2023-03-03T01:25:03;13.30;;;9.23;;
62475;SDS011;50739;45.670;11.936;2023-03-03T01:30:06;13.85;;;8.73;;
62475;SDS011;50739;45.670;11.936;2023-03-03T01:35:10;12.18;;;8.88;;
62475;SDS011;50739;45.670;11.936;2023-03-03T01:40:12;12.57;;;8.23;;
62475;SDS011;50739;45.670;11.936;2023-03-03T01:45:17;11.20;;;8.40;;
62475;SDS011;50739;45.670;11.936;2023-03-03T01:50:37;11.75;;;8.52;;
62475;SDS011;50739;45.670;11.936;2023-03-03T01:55:45;11.85;;;8.57;;
62475;SDS011;50739;45.670;11.936;2023-03-03T02:00:50;11.27;;;8.37;;
62475;SDS011;50739;45.670;11.936;2023-03-03T02:05:58;13.95;;;8.70;;
62475;SDS011;50739;45.670;11.936;2023-03-03T02:11:04;11.48;;;8.30;;
62475;SDS011;50739;45.670;11.936;2023-03-03T02:16:07;12.70;;;8.50;;
62475;SDS011;50739;45.670;11.936;2023-03-03T02:21:11;12.15;;;8.30;;
62475;SDS011;50739;45.670;11.936;2023-03-03T02:26:17;10.75;;;8.07;;
62475;SDS011;50739;45.670;11.936;2023-03-03T02:31:22;11.95;;;8.02;;
62475;SDS011;50739;45.670;11.936;2023-03-03T02:36:26;11.68;;;7.82;;
62475;SDS011;50739;45.670;11.936;2023-03-03T02:41:32;12.80;;;8.30;;
62475;SDS011;50739;45.670;11.936;2023-03-03T02:46:39;10.18;;;7.80;;
62475;SDS011;50739;45.670;11.936;2023-03-03T02:51:43;11.00;;;7.70;;
62475;SDS011;50739;45.670;11.936;2023-03-03T02:56:46;13.70;;;7.90;;
62475;SDS011;50739;45.670;11.936;2023-03-03T03:01:48;10.68;;;7.70;;
62475;SDS011;50739;45.670;11.936;2023-03-03T03:06:51;11.10;;;7.90;;
62475;SDS011;50739;45.670;11.936;2023-03-03T03:11:56;11.13;;;7.50;;
62475;SDS011;50739;45.670;11.936;2023-03-03T03:17:01;11.63;;;7.70;;
62475;SDS011;50739;45.670;11.936;2023-03-03T03:22:03;11.18;;;7.20;;
62475;SDS011;50739;45.670;11.936;2023-03-03T03:27:07;10.93;;;7.22;;
62475;SDS011;50739;45.670;11.936;2023-03-03T03:32:08;11.43;;;7.35;;
62475;SDS011;50739;45.670;11.936;2023-03-03T03:37:11;9.98;;;7.00;;
62475;SDS011;50739;45.670;11.936;2023-03-03T03:42:14;10.20;;;6.88;;
62475;SDS011;50739;45.670;11.936;2023-03-03T03:47:16;11.13;;;6.90;;
62475;SDS011;50739;45.670;11.936;2023-03-03T03:52:18;10.65;;;6.97;;
62475;SDS011;50739;45.670;11.936;2023-03-03T03:57:22;10.00;;;6.60;;
62475;SDS011;50739;45.670;11.936;2023-03-03T04:02:24;11.88;;;7.32;;
62475;SDS011;50739;45.670;11.936;2023-03-03T04:07:26;10.13;;;7.10;;
62475;SDS011;50739;45.670;11.936;2023-03-03T04:12:29;10.20;;;6.80;;
62475;SDS011;50739;45.670;11.936;2023-03-03T04:17:35;9.75;;;6.63;;
62475;SDS011;50739;45.670;11.936;2023-03-03T04:22:37;8.20;;;6.37;;
62475;SDS011;50739;45.670;11.936;2023-03-03T04:27:40;9.10;;;6.35;;
62475;SDS011;50739;45.670;11.936;2023-03-03T04:32:43;9.47;;;6.50;;
62475;SDS011;50739;45.670;11.936;2023-03-03T04:37:45;9.70;;;6.72;;
62475;SDS011;50739;45.670;11.936;2023-03-03T04:42:48;9.15;;;6.75;;
62475;SDS011;50739;45.670;11.936;2023-03-03T04:47:49;8.70;;;6.72;;
62475;SDS011;50739;45.670;11.936;2023-03-03T04:52:51;9.10;;;6.28;;
62475;SDS011;50739;45.670;11.936;2023-03-03T04:57:55;7.63;;;6.20;;
62475;SDS011;50739;45.670;11.936;2023-03-03T05:02:57;8.77;;;6.33;;
62475;SDS011;50739;45.670;11.936;2023-03-03T05:07:59;9.10;;;6.00;;
62475;SDS011;50739;45.670;11.936;2023-03-03T05:13:02;10.03;;;6.40;;
62475;SDS011;50739;45.670;11.936;2023-03-03T05:18:04;10.55;;;6.70;;
62475;SDS011;50739;45.670;11.936;2023-03-03T05:23:05;9.43;;;7.05;;
62475;SDS011;50739;45.670;11.936;2023-03-03T05:28:09;12.80;;;7.57;;
62475;SDS011;50739;45.670;11.936;2023-03-03T05:33:11;9.90;;;7.77;;
62475;SDS011;50739;45.670;11.936;2023-03-03T05:38:14;9.02;;;6.47;;
62475;SDS011;50739;45.670;11.936;2023-03-03T05:43:17;8.10;;;6.00;;
62475;SDS011;50739;45.670;11.936;2023-03-03T05:48:19;8.75;;;6.43;;
62475;SDS011;50739;45.670;11.936;2023-03-03T05:53:21;9.82;;;6.43;;
62475;SDS011;50739;45.670;11.936;2023-03-03T05:58:25;8.68;;;6.15;;
62475;SDS011;50739;45.670;11.936;2023-03-03T06:03:27;9.87;;;6.47;;
62475;SDS011;50739;45.670;11.936;2023-03-03T06:08:29;9.20;;;6.70;;
62475;SDS011;50739;45.670;11.936;2023-03-03T06:13:33;12.88;;;10.13;;
62475;SDS011;50739;45.670;11.936;2023-03-03T06:18:35;24.63;;;15.97;;
62475;SDS011;50739;45.670;11.936;2023-03-03T06:23:37;12.93;;;7.97;;
62475;SDS011;50739;45.670;11.936;2023-03-03T06:28:40;11.02;;;8.35;;
62475;SDS011;50739;45.670;11.936;2023-03-03T06:33:42;12.70;;;7.60;;
62475;SDS011;50739;45.670;11.936;2023-03-03T06:38:44;9.17;;;6.73;;
62475;SDS011;50739;45.670;11.936;2023-03-03T06:43:48;12.68;;;8.23;;
62475;SDS011;50739;45.670;11.936;2023-03-03T06:48:50;17.73;;;11.63;;
62475;SDS011;50739;45.670;11.936;2023-03-03T06:53:53;13.60;;;7.72;;
62475;SDS011;50739;45.670;11.936;2023-03-03T06:58:58;15.20;;;9.70;;
62475;SDS011;50739;45.670;11.936;2023-03-03T07:04:03;12.57;;;8.63;;
62475;SDS011;50739;45.670;11.936;2023-03-03T07:09:14;15.37;;;8.63;;
62475;SDS011;50739;45.670;11.936;2023-03-03T07:14:22;13.60;;;8.23;;
62475;SDS011;50739;45.670;11.936;2023-03-03T07:19:27;10.30;;;7.13;;
62475;SDS011;50739;45.670;11.936;2023-03-03T07:24:32;12.02;;;7.68;;
62475;SDS011;50739;45.670;11.936;2023-03-03T07:29:36;12.07;;;8.13;;
62475;SDS011;50739;45.670;11.936;2023-03-03T07:34:42;12.55;;;7.47;;
62475;SDS011;50739;45.670;11.936;2023-03-03T07:39:46;10.07;;;7.20;;
62475;SDS011;50739;45.670;11.936;2023-03-03T07:44:53;8.98;;;7.10;;
62475;SDS011;50739;45.670;11.936;2023-03-03T07:49:57;10.80;;;7.57;;
62475;SDS011;50739;45.670;11.936;2023-03-03T07:55:01;14.93;;;9.50;;
62475;SDS011;50739;45.670;11.936;2023-03-03T08:06:25;13.02;;;7.60;;
62475;SDS011;50739;45.670;11.936;2023-03-03T08:11:38;10.47;;;7.80;;
62475;SDS011;50739;45.670;11.936;2023-03-03T08:16:49;13.60;;;8.20;;
62475;SDS011;50739;45.670;11.936;2023-03-03T08:21:53;14.23;;;8.50;;
62475;SDS011;50739;45.670;11.936;2023-03-03T08:27:01;15.18;;;8.48;;
62475;SDS011;50739;45.670;11.936;2023-03-03T08:32:02;11.45;;;7.80;;
62475;SDS011;50739;45.670;11.936;2023-03-03T08:37:06;17.63;;;10.00;;
62475;SDS011;50739;45.670;11.936;2023-03-03T08:42:08;11.07;;;8.07;;
62475;SDS011;50739;45.670;11.936;2023-03-03T08:47:10;23.17;;;12.68;;
62475;SDS011;50739;45.670;11.936;2023-03-03T08:52:13;33.27;;;16.67;;
62475;SDS011;50739;45.670;11.936;2023-03-03T08:57:15;14.73;;;8.77;;
62475;SDS011;50739;45.670;11.936;2023-03-03T09:02:17;13.30;;;9.07;;
62475;SDS011;50739;45.670;11.936;2023-03-03T09:07:21;15.93;;;8.10;;
62475;SDS011;50739;45.670;11.936;2023-03-03T09:12:26;30.73;;;14.80;;
62475;SDS011;50739;45.670;11.936;2023-03-03T09:17:30;14.20;;;7.82;;
62475;SDS011;50739;45.670;11.936;2023-03-03T09:22:35;9.60;;;7.03;;
62475;SDS011;50739;45.670;11.936;2023-03-03T09:27:38;11.77;;;7.70;;
62475;SDS011;50739;45.670;11.936;2023-03-03T09:32:40;10.80;;;7.18;;
62475;SDS011;50739;45.670;11.936;2023-03-03T09:37:44;12.35;;;7.88;;
62475;SDS011;50739;45.670;11.936;2023-03-03T09:42:51;15.77;;;8.80;;
62475;SDS011;50739;45.670;11.936;2023-03-03T09:48:07;11.52;;;7.78;;
62475;SDS011;50739;45.670;11.936;2023-03-03T09:53:36;14.15;;;8.70;;
62475;SDS011;50739;45.670;11.936;2023-03-03T09:58:54;9.70;;;6.25;;
62475;SDS011;50739;45.670;11.936;2023-03-03T10:09:59;7.68;;;3.83;;
62475;SDS011;50739;45.670;11.936;2023-03-03T10:20:44;7.90;;;4.67;;
62475;SDS011;50739;45.670;11.936;2023-03-03T10:25:56;6.65;;;4.50;;
62475;SDS011;50739;45.670;11.936;2023-03-03T10:31:06;7.43;;;4.63;;
62475;SDS011;50739;45.670;11.936;2023-03-03T10:36:29;10.10;;;4.90;;
62475;SDS011;50739;45.670;11.936;2023-03-03T10:41:49;9.40;;;5.55;;
62475;SDS011;50739;45.670;11.936;2023-03-03T10:47:23;6.73;;;4.57;;
62475;SDS011;50739;45.670;11.936;2023-03-03T10:52:37;8.20;;;4.40;;
62475;SDS011;50739;45.670;11.936;2023-03-03T10:57:46;7.15;;;4.43;;
62475;SDS011;50739;45.670;11.936;2023-03-03T11:08:32;6.93;;;4.25;;
62475;SDS011;50739;45.670;11.936;2023-03-03T11:13:42;6.70;;;3.75;;
62475;SDS011;50739;45.670;11.936;2023-03-03T11:18:51;5.63;;;3.88;;
62475;SDS011;50739;45.670;11.936;2023-03-03T11:24:18;5.55;;;4.25;;
62475;SDS011;50739;45.670;11.936;2023-03-03T11:29:33;7.53;;;4.70;;
62475;SDS011;50739;45.670;11.936;2023-03-03T11:34:48;8.85;;;4.80;;
62475;SDS011;50739;45.670;11.936;2023-03-03T11:40:00;7.72;;;4.78;;
62475;SDS011;50739;45.670;11.936;2023-03-03T11:45:12;7.10;;;5.13;;
62475;SDS011;50739;45.670;11.936;2023-03-03T11:50:19;7.63;;;5.13;;
62475;SDS011;50739;45.670;11.936;2023-03-03T11:55:24;7.25;;;4.72;;
62475;SDS011;50739;45.670;11.936;2023-03-03T12:00:31;8.73;;;5.28;;
62475;SDS011;50739;45.670;11.936;2023-03-03T12:05:44;10.25;;;6.00;;
62475;SDS011;50739;45.670;11.936;2023-03-03T12:10:51;7.13;;;4.72;;
62475;SDS011;50739;45.670;11.936;2023-03-03T12:16:03;7.88;;;4.53;;
62475;SDS011;50739;45.670;11.936;2023-03-03T12:21:14;8.10;;;5.93;;
62475;SDS011;50739;45.670;11.936;2023-03-03T12:26:28;6.05;;;3.70;;
62475;SDS011;50739;45.670;11.936;2023-03-03T12:31:40;4.78;;;3.50;;
62475;SDS011;50739;45.670;11.936;2023-03-03T12:37:01;4.32;;;3.42;;
62475;SDS011;50739;45.670;11.936;2023-03-03T12:42:15;5.13;;;3.73;;
62475;SDS011;50739;45.670;11.936;2023-03-03T12:47:28;7.90;;;4.15;;
62475;SDS011;50739;45.670;11.936;2023-03-03T12:52:40;7.68;;;4.60;;
62475;SDS011;50739;45.670;11.936;2023-03-03T12:57:52;6.28;;;4.13;;
62475;SDS011;50739;45.670;11.936;2023-03-03T13:03:08;5.55;;;4.25;;
62475;SDS011;50739;45.670;11.936;2023-03-03T13:08:37;7.25;;;4.43;;
62475;SDS011;50739;45.670;11.936;2023-03-03T13:13:56;8.63;;;4.63;;
62475;SDS011;50739;45.670;11.936;2023-03-03T13:19:06;7.78;;;4.93;;
62475;SDS011;50739;45.670;11.936;2023-03-03T13:24:15;6.07;;;4.72;;
62475;SDS011;50739;45.670;11.936;2023-03-03T13:29:23;5.57;;;4.33;;
62475;SDS011;50739;45.670;11.936;2023-03-03T13:34:33;6.32;;;4.35;;
62475;SDS011;50739;45.670;11.936;2023-03-03T13:39:45;7.72;;;4.22;;
62475;SDS011;50739;45.670;11.936;2023-03-03T13:44:56;5.38;;;3.88;;
62475;SDS011;50739;45.670;11.936;2023-03-03T13:50:02;7.07;;;3.60;;
62475;SDS011;50739;45.670;11.936;2023-03-03T13:55:14;5.23;;;3.60;;
62475;SDS011;50739;45.670;11.936;2023-03-03T14:00:25;9.43;;;4.13;;
62475;SDS011;50739;45.670;11.936;2023-03-03T14:05:35;7.65;;;4.32;;
62475;SDS011;50739;45.670;11.936;2023-03-03T14:10:41;7.18;;;4.22;;
62475;SDS011;50739;45.670;11.936;2023-03-03T14:15:49;7.30;;;4.10;;
62475;SDS011;50739;45.670;11.936;2023-03-03T14:20:57;4.82;;;4.05;;
62475;SDS011;50739;45.670;11.936;2023-03-03T14:26:06;8.75;;;5.28;;
62475;SDS011;50739;45.670;11.936;2023-03-03T14:31:17;6.53;;;4.20;;
62475;SDS011;50739;45.670;11.936;2023-03-03T14:36:25;8.20;;;5.20;;
62475;SDS011;50739;45.670;11.936;2023-03-03T14:41:38;6.22;;;4.30;;
62475;SDS011;50739;45.670;11.936;2023-03-03T14:46:42;8.98;;;4.60;;
62475;SDS011;50739;45.670;11.936;2023-03-03T14:51:46;6.72;;;4.78;;
62475;SDS011;50739;45.670;11.936;2023-03-03T14:56:57;6.27;;;4.13;;
62475;SDS011;50739;45.670;11.936;2023-03-03T15:02:23;8.68;;;5.38;;
62475;SDS011;50739;45.670;11.936;2023-03-03T15:07:32;7.88;;;4.35;;
62475;SDS011;50739;45.670;11.936;2023-03-03T15:12:36;10.30;;;4.73;;
62475;SDS011;50739;45.670;11.936;2023-03-03T15:17:40;7.25;;;5.20;;
62475;SDS011;50739;45.670;11.936;2023-03-03T15:22:49;8.23;;;5.00;;
62475;SDS011;50739;45.670;11.936;2023-03-03T15:28:05;8.57;;;4.90;;
62475;SDS011;50739;45.670;11.936;2023-03-03T15:33:23;7.57;;;5.47;;
62475;SDS011;50739;45.670;11.936;2023-03-03T15:43:58;8.50;;;5.07;;
62475;SDS011;50739;45.670;11.936;2023-03-03T15:49:12;8.18;;;5.22;;
62475;SDS011;50739;45.670;11.936;2023-03-03T15:54:27;7.63;;;4.50;;
62475;SDS011;50739;45.670;11.936;2023-03-03T15:59:42;7.10;;;3.30;;
62475;SDS011;50739;45.670;11.936;2023-03-03T16:05:11;7.00;;;3.80;;
62475;SDS011;50739;45.670;11.936;2023-03-03T16:10:20;8.02;;;4.95;;
62475;SDS011;50739;45.670;11.936;2023-03-03T16:20:59;8.40;;;4.40;;
62475;SDS011;50739;45.670;11.936;2023-03-03T16:26:13;10.98;;;4.97;;
62475;SDS011;50739;45.670;11.936;2023-03-03T16:31:26;14.75;;;9.30;;
62475;SDS011;50739;45.670;11.936;2023-03-03T16:36:35;41.78;;;23.65;;
62475;SDS011;50739;45.670;11.936;2023-03-03T16:41:50;16.13;;;9.47;;
62475;SDS011;50739;45.670;11.936;2023-03-03T16:47:04;11.93;;;6.90;;
62475;SDS011;50739;45.670;11.936;2023-03-03T16:52:16;12.30;;;7.03;;
62475;SDS011;50739;45.670;11.936;2023-03-03T16:57:26;14.02;;;7.55;;
62475;SDS011;50739;45.670;11.936;2023-03-03T17:02:45;14.95;;;6.97;;
62475;SDS011;50739;45.670;11.936;2023-03-03T17:08:20;41.78;;;16.80;;
62475;SDS011;50739;45.670;11.936;2023-03-03T17:13:37;20.80;;;9.30;;
62475;SDS011;50739;45.670;11.936;2023-03-03T17:18:51;17.00;;;9.15;;
62475;SDS011;50739;45.670;11.936;2023-03-03T17:24:05;21.27;;;10.05;;
62475;SDS011;50739;45.670;11.936;2023-03-03T17:29:30;26.58;;;9.35;;
62475;SDS011;50739;45.670;11.936;2023-03-03T17:34:42;21.10;;;9.37;;
62475;SDS011;50739;45.670;11.936;2023-03-03T17:45:26;15.50;;;8.50;;
62475;SDS011;50739;45.670;11.936;2023-03-03T17:50:34;17.90;;;9.33;;
62475;SDS011;50739;45.670;11.936;2023-03-03T17:55:55;14.57;;;8.33;;
62475;SDS011;50739;45.670;11.936;2023-03-03T18:01:09;15.35;;;8.38;;
62475;SDS011;50739;45.670;11.936;2023-03-03T18:06:25;22.67;;;10.32;;
62475;SDS011;50739;45.670;11.936;2023-03-03T18:11:49;22.00;;;11.35;;
62475;SDS011;50739;45.670;11.936;2023-03-03T18:22:39;18.13;;;11.77;;
62475;SDS011;50739;45.670;11.936;2023-03-03T18:27:43;18.02;;;11.98;;
62475;SDS011;50739;45.670;11.936;2023-03-03T18:32:57;17.13;;;10.88;;
62475;SDS011;50739;45.670;11.936;2023-03-03T18:43:39;20.90;;;12.45;;
62475;SDS011;50739;45.670;11.936;2023-03-03T18:48:50;19.73;;;11.77;;
62475;SDS011;50739;45.670;11.936;2023-03-03T18:53:58;19.90;;;12.85;;
62475;SDS011;50739;45.670;11.936;2023-03-03T18:59:01;22.55;;;13.95;;
62475;SDS011;50739;45.670;11.936;2023-03-03T19:04:11;20.45;;;13.52;;
62475;SDS011;50739;45.670;11.936;2023-03-03T19:09:18;21.00;;;13.32;;
62475;SDS011;50739;45.670;11.936;2023-03-03T19:14:41;25.27;;;14.63;;
62475;SDS011;50739;45.670;11.936;2023-03-03T19:19:58;22.52;;;14.65;;
62475;SDS011;50739;45.670;11.936;2023-03-03T19:25:11;25.10;;;15.25;;
62475;SDS011;50739;45.670;11.936;2023-03-03T19:30:18;25.23;;;15.00;;
62475;SDS011;50739;45.670;11.936;2023-03-03T19:35:32;23.57;;;15.70;;
62475;SDS011;50739;45.670;11.936;2023-03-03T19:40:41;23.75;;;16.08;;
62475;SDS011;50739;45.670;11.936;2023-03-03T19:45:56;23.40;;;16.23;;
62475;SDS011;50739;45.670;11.936;2023-03-03T19:51:12;23.88;;;15.27;;
62475;SDS011;50739;45.670;11.936;2023-03-03T19:56:24;24.53;;;16.47;;
62475;SDS011;50739;45.670;11.936;2023-03-03T20:01:39;24.42;;;17.17;;
62475;SDS011;50739;45.670;11.936;2023-03-03T20:06:54;23.17;;;15.13;;
62475;SDS011;50739;45.670;11.936;2023-03-03T20:12:06;24.88;;;15.93;;
62475;SDS011;50739;45.670;11.936;2023-03-03T20:17:22;25.67;;;16.48;;
62475;SDS011;50739;45.670;11.936;2023-03-03T20:22:39;34.13;;;20.90;;
62475;SDS011;50739;45.670;11.936;2023-03-03T20:27:49;32.63;;;18.83;;
62475;SDS011;50739;45.670;11.936;2023-03-03T20:33:08;33.58;;;19.15;;
62475;SDS011;50739;45.670;11.936;2023-03-03T20:38:22;30.13;;;18.13;;
62475;SDS011;50739;45.670;11.936;2023-03-03T20:43:33;38.75;;;20.95;;
62475;SDS011;50739;45.670;11.936;2023-03-03T20:48:52;37.07;;;20.43;;
62475;SDS011;50739;45.670;11.936;2023-03-03T20:54:05;28.08;;;15.95;;
62475;SDS011;50739;45.670;11.936;2023-03-03T20:59:17;27.27;;;16.58;;
62475;SDS011;50739;45.670;11.936;2023-03-03T21:04:27;26.05;;;16.50;;
62475;SDS011;50739;45.670;11.936;2023-03-03T21:09:32;26.45;;;17.25;;
62475;SDS011;50739;45.670;11.936;2023-03-03T21:14:35;26.33;;;17.52;;
62475;SDS011;50739;45.670;11.936;2023-03-03T21:19:37;28.65;;;17.80;;
62475;SDS011;50739;45.670;11.936;2023-03-03T21:24:48;30.48;;;19.33;;
62475;SDS011;50739;45.670;11.936;2023-03-03T21:30:00;32.15;;;18.75;;
62475;SDS011;50739;45.670;11.936;2023-03-03T21:35:05;29.55;;;20.15;;
62475;SDS011;50739;45.670;11.936;2023-03-03T21:40:14;32.72;;;20.77;;
62475;SDS011;50739;45.670;11.936;2023-03-03T21:45:19;29.45;;;20.75;;
62475;SDS011;50739;45.670;11.936;2023-03-03T21:50:22;32.42;;;19.80;;
62475;SDS011;50739;45.670;11.936;2023-03-03T21:55:27;34.90;;;21.83;;
62475;SDS011;50739;45.670;11.936;2023-03-03T22:00:29;33.43;;;22.10;;
62475;SDS011;50739;45.670;11.936;2023-03-03T22:05:31;36.67;;;22.67;;
62475;SDS011;50739;45.670;11.936;2023-03-03T22:10:35;36.87;;;23.43;;
62475;SDS011;50739;45.670;11.936;2023-03-03T22:15:37;33.33;;;22.83;;
62475;SDS011;50739;45.670;11.936;2023-03-03T22:20:39;34.27;;;21.83;;
62475;SDS011;50739;45.670;11.936;2023-03-03T22:25:42;36.90;;;22.20;;
62475;SDS011;50739;45.670;11.936;2023-03-03T22:30:44;33.33;;;19.98;;
62475;SDS011;50739;45.670;11.936;2023-03-03T22:35:46;27.58;;;18.85;;
62475;SDS011;50739;45.670;11.936;2023-03-03T22:40:49;35.03;;;20.65;;
62475;SDS011;50739;45.670;11.936;2023-03-03T22:45:51;34.65;;;20.48;;
62475;SDS011;50739;45.670;11.936;2023-03-03T22:50:53;29.85;;;20.17;;
62475;SDS011;50739;45.670;11.936;2023-03-03T22:55:56;32.00;;;19.83;;
62475;SDS011;50739;45.670;11.936;2023-03-03T23:00:58;29.70;;;19.90;;
62475;SDS011;50739;45.670;11.936;2023-03-03T23:06:00;30.73;;;19.25;;
62475;SDS011;50739;45.670;11.936;2023-03-03T23:11:04;31.60;;;19.77;;
62475;SDS011;50739;45.670;11.936;2023-03-03T23:16:05;31.95;;;18.48;;
62475;SDS011;50739;45.670;11.936;2023-03-03T23:21:07;23.83;;;16.45;;
62475;SDS011;50739;45.670;11.936;2023-03-03T23:26:11;27.98;;;17.98;;
62475;SDS011;50739;45.670;11.936;2023-03-03T23:31:13;27.45;;;18.58;;
62475;SDS011;50739;45.670;11.936;2023-03-03T23:36:14;28.23;;;18.48;;
62475;SDS011;50739;45.670;11.936;2023-03-03T23:41:18;26.00;;;18.23;;
62475;SDS011;50739;45.670;11.936;2023-03-03T23:46:19;27.23;;;17.70;;
62475;SDS011;50739;45.670;11.936;2023-03-03T23:51:21;26.50;;;17.73;;
62475;SDS011;50739;45.670;11.936;2023-03-03T23:56:25;27.15;;;17.60;;
